createdAt,value
2018-12-27T00:02:10.656Z,95286.75
2018-12-27T00:04:39.955Z,95300.83
2018-12-27T00:07:09.274Z,95294.53
2018-12-27T00:09:38.589Z,95291.06
2018-12-27T00:12:07.924Z,95292.34
2018-12-27T00:14:37.255Z,95314.73
2018-12-27T00:17:06.568Z,95299.33
2018-12-27T00:19:35.960Z,95306.59
2018-12-27T00:22:05.525Z,95296.92
2018-12-27T00:24:34.843Z,95299.92
2018-12-27T00:27:04.178Z,95290.78
2018-12-27T00:29:33.531Z,95299.27
2018-12-27T00:32:02.992Z,95300.66
2018-12-27T00:34:32.429Z,95300.19
2018-12-27T00:37:01.891Z,95302.36
2018-12-27T00:39:31.355Z,95296.77
2018-12-27T00:42:00.779Z,95290.68
2018-12-27T00:44:30.208Z,95284.83
2018-12-27T00:46:59.718Z,95306.14
2018-12-27T00:49:29.187Z,95296.34
2018-12-27T00:51:58.643Z,95297.63
2018-12-27T00:54:28.125Z,95292.14
2018-12-27T00:56:57.555Z,95300.55
2018-12-27T00:59:27.004Z,95303.11
2018-12-27T01:01:56.485Z,95308.60
2018-12-27T01:04:25.897Z,95298.80
2018-12-27T01:06:55.311Z,95294.69
2018-12-27T01:09:24.785Z,95296.33
2018-12-27T01:11:54.255Z,95301.94
2018-12-27T01:14:23.706Z,95303.91
2018-12-27T01:16:53.147Z,95305.47
2018-12-27T01:19:22.622Z,95305.39
2018-12-27T01:21:52.117Z,95301.29
2018-12-27T01:24:21.547Z,95321.67
2018-12-27T01:26:50.994Z,95301.62
2018-12-27T01:29:20.420Z,95302.57
2018-12-27T01:31:50.682Z,95297.89
2018-12-27T01:34:20.333Z,95285.73
2018-12-27T01:36:49.741Z,95278.81
2018-12-27T01:39:19.503Z,95293.41
2018-12-27T01:41:48.919Z,95285.09
2018-12-27T01:44:18.348Z,95287.86
2018-12-27T01:46:47.781Z,95278.25
2018-12-27T01:49:17.202Z,95279.87
2018-12-27T01:51:46.668Z,95288.17
2018-12-27T01:54:16.145Z,95285.35
2018-12-27T01:56:45.588Z,95282.53
2018-12-27T01:59:15.046Z,95279.87
2018-12-27T02:01:44.491Z,95278.14
2018-12-27T02:04:14.045Z,95273.73
2018-12-27T02:06:43.456Z,95265.52
2018-12-27T02:09:12.907Z,95268.71
2018-12-27T02:11:42.387Z,95273.02
2018-12-27T02:14:11.819Z,95268.92
2018-12-27T02:16:41.322Z,95269.28
2018-12-27T02:19:10.721Z,95263.44
2018-12-27T02:21:40.241Z,95271.86
2018-12-27T02:24:09.708Z,95265.83
2018-12-27T02:26:39.220Z,95258.16
2018-12-27T02:29:08.703Z,95254.20
2018-12-27T02:31:38.166Z,95270.59
2018-12-27T02:34:07.629Z,95268.94
2018-12-27T02:36:37.120Z,95257.31
2018-12-27T02:39:08.241Z,95256.98
2018-12-27T02:41:37.659Z,95253.73
2018-12-27T02:44:07.122Z,95248.72
2018-12-27T02:46:36.685Z,95239.77
2018-12-27T02:49:06.185Z,95238.59
2018-12-27T02:51:35.644Z,95237.33
2018-12-27T02:54:05.088Z,95243.18
2018-12-27T02:56:34.550Z,95237.48
2018-12-27T02:59:04.058Z,95234.22
2018-12-27T03:01:33.496Z,95237.53
2018-12-27T03:04:02.931Z,95247.14
2018-12-27T03:06:32.444Z,95233.53
2018-12-27T03:09:02.009Z,95242.12
2018-12-27T03:11:31.407Z,95235.63
2018-12-27T03:14:00.820Z,95240.84
2018-12-27T03:16:30.342Z,95240.84
2018-12-27T03:18:59.811Z,95247.30
2018-12-27T03:21:29.238Z,95248.69
2018-12-27T03:23:58.692Z,95242.75
2018-12-27T03:26:28.151Z,95258.92
2018-12-27T03:28:57.605Z,95248.52
2018-12-27T03:31:27.146Z,95239.20
2018-12-27T03:33:56.623Z,95247.99
2018-12-27T03:36:26.052Z,95257.02
2018-12-27T03:38:55.516Z,95263.83
2018-12-27T03:41:24.970Z,95254.68
2018-12-27T03:43:54.402Z,95261.17
2018-12-27T03:46:23.814Z,95267.40
2018-12-27T03:48:53.211Z,95263.37
2018-12-27T03:51:22.699Z,95262.83
2018-12-27T03:53:52.107Z,95270.97
2018-12-27T03:56:21.546Z,95284.20
2018-12-27T03:58:50.962Z,95275.82
2018-12-27T04:01:20.402Z,95273.33
2018-12-27T04:03:49.829Z,95283.67
2018-12-27T04:06:19.288Z,95296.46
2018-12-27T04:08:48.724Z,95295.82
2018-12-27T04:11:18.226Z,95294.10
2018-12-27T04:13:47.800Z,95313.56
2018-12-27T04:16:17.099Z,95308.81
2018-12-27T04:18:46.421Z,95307.60
2018-12-27T04:21:15.741Z,95313.45
2018-12-27T04:23:45.717Z,95315.28
2018-12-27T04:26:15.212Z,95327.33
2018-12-27T04:28:44.512Z,95308.71
2018-12-27T04:31:14.402Z,95305.31
2018-12-27T04:33:44.607Z,95323.86
2018-12-27T04:36:14.515Z,95324.60
2018-12-27T04:38:43.846Z,95326.72
2018-12-27T04:41:13.234Z,95321.50
2018-12-27T04:43:42.578Z,95333.75
2018-12-27T04:46:11.923Z,95343.05
2018-12-27T04:48:41.210Z,95332.01
2018-12-27T04:51:10.551Z,95346.17
2018-12-27T04:53:39.832Z,95349.27
2018-12-27T04:56:09.156Z,95347.08
2018-12-27T04:58:38.487Z,95352.73
2018-12-27T05:01:07.804Z,95356.23
2018-12-27T05:03:37.111Z,95366.93
2018-12-27T05:06:06.448Z,95367.27
2018-12-27T05:08:35.748Z,95364.09
2018-12-27T05:11:05.074Z,95368.38
2018-12-27T05:13:34.519Z,95368.91
2018-12-27T05:16:03.885Z,95383.81
2018-12-27T05:18:33.266Z,95378.15
2018-12-27T05:21:02.602Z,95386.55
2018-12-27T05:23:32.071Z,95388.19
2018-12-27T05:26:01.440Z,95385.45
2018-12-27T05:28:30.750Z,95387.80
2018-12-27T05:31:00.061Z,95349.38
2018-12-27T05:33:29.415Z,95396.95
2018-12-27T05:35:58.790Z,95389.72
2018-12-27T05:38:28.162Z,95410.08
2018-12-27T05:40:57.543Z,95402.12
2018-12-27T05:43:26.886Z,95409.19
2018-12-27T05:45:56.337Z,95407.53
2018-12-27T05:48:25.701Z,95412.17
2018-12-27T05:50:55.032Z,95417.76
2018-12-27T05:53:24.341Z,95432.16
2018-12-27T05:55:53.646Z,95439.36
2018-12-27T05:58:22.997Z,95433.54
2018-12-27T06:00:52.297Z,95424.24
2018-12-27T06:03:21.639Z,95433.63
2018-12-27T06:05:51.005Z,95437.56
2018-12-27T06:08:20.357Z,95441.77
2018-12-27T06:10:49.646Z,95438.00
2018-12-27T06:13:18.979Z,95441.08
2018-12-27T06:15:48.323Z,95454.14
2018-12-27T06:18:17.651Z,95456.42
2018-12-27T06:20:47.011Z,95461.09
2018-12-27T06:23:16.306Z,95446.56
2018-12-27T06:25:45.686Z,95455.98
2018-12-27T06:28:15.089Z,95447.69
2018-12-27T06:30:44.377Z,95450.59
2018-12-27T06:33:13.646Z,95457.97
2018-12-27T06:35:42.934Z,95444.20
2018-12-27T06:38:12.217Z,95449.44
2018-12-27T06:40:41.517Z,95454.83
2018-12-27T06:43:10.870Z,95456.27
2018-12-27T06:45:40.233Z,95455.98
2018-12-27T06:48:09.911Z,95454.42
2018-12-27T06:50:39.275Z,95454.61
2018-12-27T06:53:08.569Z,95458.34
2018-12-27T06:55:37.853Z,95463.09
2018-12-27T06:58:07.249Z,95464.73
2018-12-27T07:00:36.593Z,95469.01
2018-12-27T07:03:05.973Z,95462.66
2018-12-27T07:05:35.408Z,95456.73
2018-12-27T07:08:04.775Z,95466.70
2018-12-27T07:10:34.140Z,95470.26
2018-12-27T07:13:03.517Z,95470.81
2018-12-27T07:15:32.853Z,95483.54
2018-12-27T07:18:02.199Z,95475.65
2018-12-27T07:20:31.512Z,95467.27
2018-12-27T07:23:00.887Z,95483.26
2018-12-27T07:25:30.186Z,95486.50
2018-12-27T07:27:59.483Z,95472.87
2018-12-27T07:30:28.842Z,95476.47
2018-12-27T07:32:58.164Z,95484.41
2018-12-27T07:35:27.515Z,95472.34
2018-12-27T07:37:56.815Z,95484.78
2018-12-27T07:40:26.168Z,95494.11
2018-12-27T07:42:55.501Z,95487.72
2018-12-27T07:45:24.904Z,95480.64
2018-12-27T07:47:54.202Z,95493.98
2018-12-27T07:50:23.531Z,95502.37
2018-12-27T07:52:52.868Z,95481.64
2018-12-27T07:55:22.174Z,95490.15
2018-12-27T07:57:51.500Z,95495.78
2018-12-27T08:00:20.830Z,95484.19
2018-12-27T08:02:50.196Z,95492.27
2018-12-27T08:05:19.577Z,95496.58
2018-12-27T08:07:49.021Z,95493.64
2018-12-27T08:10:18.356Z,95497.66
2018-12-27T08:12:47.755Z,95500.72
2018-12-27T08:15:17.056Z,95506.73
2018-12-27T08:17:46.462Z,95508.95
2018-12-27T08:20:15.750Z,95516.34
2018-12-27T08:22:45.086Z,95516.22
2018-12-27T08:25:14.385Z,95514.03
2018-12-27T08:27:43.838Z,95521.80
2018-12-27T08:30:13.170Z,95518.91
2018-12-27T08:32:42.511Z,95520.86
2018-12-27T08:35:12.080Z,95520.61
2018-12-27T08:37:41.483Z,95522.89
2018-12-27T08:40:10.838Z,95513.51
2018-12-27T08:42:40.143Z,95529.56
2018-12-27T08:45:09.510Z,95530.91
2018-12-27T08:47:38.868Z,95518.68
2018-12-27T08:50:08.428Z,95523.70
2018-12-27T08:52:37.775Z,95523.89
2018-12-27T08:55:07.276Z,95527.10
2018-12-27T08:57:36.630Z,95521.61
2018-12-27T09:00:07.669Z,95530.69
2018-12-27T09:02:37.011Z,95526.36
2018-12-27T09:05:07.145Z,95521.52
2018-12-27T09:07:36.508Z,95521.52
2018-12-27T09:10:06.241Z,95517.91
2018-12-27T09:12:36.207Z,95518.96
2018-12-27T09:15:05.712Z,95514.97
2018-12-27T09:17:35.097Z,95508.48
2018-12-27T09:20:04.530Z,95504.77
2018-12-27T09:22:33.886Z,95510.95
2018-12-27T09:25:03.242Z,95510.05
2018-12-27T09:27:32.561Z,95514.59
2018-12-27T09:30:01.929Z,95505.67
2018-12-27T09:32:31.259Z,95511.16
2018-12-27T09:35:00.607Z,95521.67
2018-12-27T09:37:29.910Z,95514.18
2018-12-27T09:39:59.299Z,95511.28
2018-12-27T09:42:28.639Z,95502.95
2018-12-27T09:44:57.945Z,95500.56
2018-12-27T09:47:27.300Z,95516.09
2018-12-27T09:49:56.701Z,95495.63
2018-12-27T09:52:26.048Z,95507.88
2018-12-27T09:54:55.352Z,95509.71
2018-12-27T09:57:24.669Z,95508.06
2018-12-27T09:59:54.020Z,95502.66
2018-12-27T10:02:23.419Z,95502.90
2018-12-27T10:04:52.790Z,95522.08
2018-12-27T10:07:22.139Z,95490.39
2018-12-27T10:09:51.488Z,95487.70
2018-12-27T10:12:20.832Z,95482.48
2018-12-27T10:14:50.174Z,95488.06
2018-12-27T10:17:19.536Z,95482.48
2018-12-27T10:19:49.012Z,95473.45
2018-12-27T10:22:18.387Z,95473.89
2018-12-27T10:24:47.716Z,95471.27
2018-12-27T10:27:17.045Z,95463.29
2018-12-27T10:29:46.374Z,95473.09
2018-12-27T10:32:15.762Z,95453.25
2018-12-27T10:34:45.107Z,95452.52
2018-12-27T10:37:14.446Z,95448.31
2018-12-27T10:39:43.788Z,95449.05
2018-12-27T10:42:13.151Z,95439.83
2018-12-27T10:44:42.473Z,95432.70
2018-12-27T10:47:11.823Z,95437.91
2018-12-27T10:49:41.214Z,95435.34
2018-12-27T10:52:10.582Z,95418.80
2018-12-27T10:54:39.886Z,95418.06
2018-12-27T10:57:09.216Z,95417.42
2018-12-27T10:59:38.662Z,95415.59
2018-12-27T11:02:08.113Z,95420.98
2018-12-27T11:04:37.445Z,95414.50
2018-12-27T11:07:06.806Z,95423.45
2018-12-27T11:09:36.162Z,95422.83
2018-12-27T11:12:05.524Z,95414.24
2018-12-27T11:14:37.059Z,95408.11
2018-12-27T11:17:06.406Z,95408.95
2018-12-27T11:19:35.734Z,95411.67
2018-12-27T11:22:05.073Z,95404.27
2018-12-27T11:24:34.356Z,95403.63
2018-12-27T11:27:03.682Z,95403.73
2018-12-27T11:29:33.160Z,95412.22
2018-12-27T11:32:02.514Z,95404.64
2018-12-27T11:34:31.815Z,95405.72
2018-12-27T11:37:01.197Z,95406.09
2018-12-27T11:39:30.521Z,95418.42
2018-12-27T11:41:59.934Z,95414.34
2018-12-27T11:44:29.254Z,95411.48
2018-12-27T11:46:58.563Z,95433.50
2018-12-27T11:49:27.934Z,95422.02
2018-12-27T11:51:57.270Z,95417.80
2018-12-27T11:54:26.633Z,95421.28
2018-12-27T11:56:56.025Z,95417.43
2018-12-27T11:59:25.371Z,95430.69
2018-12-27T12:01:54.691Z,95419.08
2018-12-27T12:04:23.996Z,95414.41
2018-12-27T12:06:53.336Z,95415.15
2018-12-27T12:09:22.640Z,95417.34
2018-12-27T12:11:52.067Z,95429.13
2018-12-27T12:14:21.439Z,95427.30
2018-12-27T12:16:50.775Z,95425.55
2018-12-27T12:19:20.236Z,95425.19
2018-12-27T12:21:49.566Z,95431.79
2018-12-27T12:24:18.894Z,95425.66
2018-12-27T12:26:48.260Z,95440.11
2018-12-27T12:29:17.572Z,95426.03
2018-12-27T12:31:46.914Z,95416.70
2018-12-27T12:34:16.298Z,95425.73
2018-12-27T12:36:45.830Z,95426.64
2018-12-27T12:39:15.152Z,95424.72
2018-12-27T12:41:44.495Z,95429.47
2018-12-27T12:44:13.874Z,95428.36
2018-12-27T12:46:43.219Z,95424.19
2018-12-27T12:49:12.501Z,95422.91
2018-12-27T12:51:41.911Z,95427.92
2018-12-27T12:54:11.220Z,95429.38
2018-12-27T12:56:40.569Z,95438.00
2018-12-27T12:59:09.927Z,95431.33
2018-12-27T13:01:39.307Z,95440.01
2018-12-27T13:04:08.623Z,95446.88
2018-12-27T13:06:37.937Z,95453.89
2018-12-27T13:09:08.405Z,95446.12
2018-12-27T13:11:37.769Z,95439.66
2018-12-27T13:14:07.123Z,95443.39
2018-12-27T13:16:36.482Z,95450.53
2018-12-27T13:19:05.845Z,95441.28
2018-12-27T13:21:35.225Z,95450.16
2018-12-27T13:24:04.551Z,95452.43
2018-12-27T13:26:33.869Z,95444.11
2018-12-27T13:29:03.222Z,95444.68
2018-12-27T13:31:32.581Z,95437.27
2018-12-27T13:34:01.913Z,95435.60
2018-12-27T13:36:31.298Z,95437.89
2018-12-27T13:39:00.641Z,95450.69
2018-12-27T13:41:30.027Z,95437.18
2018-12-27T13:43:59.367Z,95436.61
2018-12-27T13:46:28.698Z,95436.44
2018-12-27T13:48:58.077Z,95443.48
2018-12-27T13:51:27.437Z,95438.53
2018-12-27T13:53:56.772Z,95436.98
2018-12-27T13:56:26.084Z,95446.03
2018-12-27T13:58:55.499Z,95437.82
2018-12-27T14:01:24.792Z,95443.75
2018-12-27T14:03:54.267Z,95442.94
2018-12-27T14:06:23.611Z,95441.94
2018-12-27T14:08:52.972Z,95442.75
2018-12-27T14:11:22.379Z,95439.17
2018-12-27T14:13:51.738Z,95433.23
2018-12-27T14:16:21.090Z,95449.70
2018-12-27T14:18:50.415Z,95440.84
2018-12-27T14:21:20.119Z,95450.69
2018-12-27T14:23:49.483Z,95447.96
2018-12-27T14:26:18.864Z,95452.17
2018-12-27T14:28:48.138Z,95457.36
2018-12-27T14:31:17.468Z,95450.44
2018-12-27T14:33:46.794Z,95449.15
2018-12-27T14:36:16.235Z,95453.81
2018-12-27T14:38:46.458Z,95453.72
2018-12-27T14:41:15.821Z,95455.08
2018-12-27T14:43:50.978Z,95457.09
2018-12-27T14:46:20.508Z,95467.70
2018-12-27T14:48:49.833Z,95462.66
2018-12-27T14:51:19.176Z,95467.97
2018-12-27T14:53:52.577Z,95470.62
2018-12-27T14:56:22.034Z,95465.41
2018-12-27T14:58:51.425Z,95471.06
2018-12-27T15:01:20.781Z,95463.48
2018-12-27T15:03:52.196Z,95466.23
2018-12-27T15:06:21.538Z,95472.80
2018-12-27T15:08:53.099Z,95467.69
2018-12-27T15:11:22.394Z,95471.71
2018-12-27T15:13:51.744Z,95463.66
2018-12-27T15:16:23.547Z,95470.43
2018-12-27T15:18:52.871Z,95468.41
2018-12-27T15:21:23.851Z,95468.97
2018-12-27T15:23:53.276Z,95462.58
2018-12-27T15:26:22.658Z,95469.88
2018-12-27T15:28:52.004Z,95471.43
2018-12-27T15:31:21.328Z,95494.99
2018-12-27T15:33:50.696Z,95474.73
2018-12-27T15:36:21.930Z,95474.52
2018-12-27T15:38:51.329Z,95474.64
2018-12-27T15:41:20.695Z,95479.48
2018-12-27T15:43:51.595Z,95485.23
2018-12-27T15:46:20.950Z,95482.20
2018-12-27T15:48:50.321Z,95484.76
2018-12-27T15:51:19.695Z,95482.57
2018-12-27T15:53:49.018Z,95473.34
2018-12-27T15:56:18.366Z,95476.27
2018-12-27T15:58:49.550Z,95473.25
2018-12-27T16:01:20.032Z,95483.14
2018-12-27T16:03:49.424Z,95479.64
2018-12-27T16:06:21.670Z,95472.34
2018-12-27T16:08:51.439Z,95473.52
2018-12-27T16:11:20.836Z,95477.10
2018-12-27T16:13:50.161Z,95482.05
2018-12-27T16:16:19.581Z,95484.68
2018-12-27T16:18:48.936Z,95481.22
2018-12-27T16:21:18.302Z,95497.84
2018-12-27T16:23:47.634Z,95494.38
2018-12-27T16:26:17.015Z,95495.29
2018-12-27T16:28:46.391Z,95497.41
2018-12-27T16:31:15.727Z,95502.05
2018-12-27T16:33:45.098Z,95509.08
2018-12-27T16:36:14.474Z,95496.76
2018-12-27T16:38:43.839Z,95499.88
2018-12-27T16:41:13.181Z,95493.28
2018-12-27T16:43:42.502Z,95492.91
2018-12-27T16:46:11.814Z,95497.39
2018-12-27T16:48:41.144Z,95498.14
2018-12-27T16:51:13.467Z,95506.26
2018-12-27T16:53:42.781Z,95500.86
2018-12-27T16:56:12.140Z,95500.96
2018-12-27T16:58:41.488Z,95527.11
2018-12-27T17:01:10.832Z,95497.75
2018-12-27T17:03:41.477Z,95505.36
2018-12-27T17:06:10.809Z,95493.84
2018-12-27T17:08:40.193Z,95501.52
2018-12-27T17:11:09.511Z,95499.67
2018-12-27T17:13:38.850Z,95495.84
2018-12-27T17:16:08.292Z,95502.23
2018-12-27T17:18:37.679Z,95504.89
2018-12-27T17:21:07.037Z,95509.94
2018-12-27T17:23:36.424Z,95504.72
2018-12-27T17:26:05.911Z,95507.92
2018-12-27T17:28:35.251Z,95500.25
2018-12-27T17:31:04.584Z,95505.27
2018-12-27T17:33:33.915Z,95501.17
2018-12-27T17:36:03.194Z,95498.23
2018-12-27T17:38:32.492Z,95483.79
2018-12-27T17:41:01.887Z,95482.80
2018-12-27T17:43:31.275Z,95492.03
2018-12-27T17:46:00.716Z,95489.54
2018-12-27T17:48:30.033Z,95494.66
2018-12-27T17:50:59.399Z,95487.09
2018-12-27T17:53:28.873Z,95492.76
2018-12-27T17:55:58.241Z,95487.17
2018-12-27T17:58:27.570Z,95500.81
2018-12-27T18:00:56.897Z,95503.53
2018-12-27T18:03:26.206Z,95489.08
2018-12-27T18:05:55.590Z,95493.86
2018-12-27T18:08:24.909Z,95495.95
2018-12-27T18:10:54.242Z,95506.45
2018-12-27T18:13:23.642Z,95492.31
2018-12-27T18:15:53.884Z,95492.11
2018-12-27T18:18:23.248Z,95497.98
2018-12-27T18:20:54.969Z,95485.61
2018-12-27T18:23:24.287Z,95492.21
2018-12-27T18:25:53.713Z,95496.70
2018-12-27T18:28:23.074Z,95492.38
2018-12-27T18:30:52.429Z,95487.17
2018-12-27T18:33:21.709Z,95493.41
2018-12-27T18:35:51.107Z,95498.52
2018-12-27T18:38:20.450Z,95507.55
2018-12-27T18:40:52.063Z,95506.27
2018-12-27T18:43:24.525Z,95506.84
2018-12-27T18:45:53.873Z,95498.42
2018-12-27T18:48:23.217Z,95508.77
2018-12-27T18:50:52.551Z,95504.09
2018-12-27T18:53:21.902Z,95498.23
2018-12-27T18:55:51.275Z,95496.95
2018-12-27T18:58:20.675Z,95491.02
2018-12-27T19:00:50.030Z,95490.48
2018-12-27T19:03:21.310Z,95496.04
2018-12-27T19:05:50.661Z,95495.67
2018-12-27T19:08:19.988Z,95499.14
2018-12-27T19:11:42.442Z,95496.31
2018-12-27T19:14:11.793Z,95495.03
2018-12-27T19:16:45.865Z,95497.49
2018-12-27T19:19:15.200Z,95499.51
2018-12-27T19:22:17.492Z,95495.03
2018-12-27T19:24:46.806Z,95490.82
2018-12-27T19:27:16.112Z,95490.65
2018-12-27T19:29:45.417Z,95490.55
2018-12-27T19:32:15.224Z,95488.47
2018-12-27T19:34:44.560Z,95500.05
2018-12-27T19:37:13.923Z,95490.36
2018-12-27T19:39:46.521Z,95497.70
2018-12-27T19:42:15.885Z,95494.57
2018-12-27T19:44:47.004Z,95498.78
2018-12-27T19:47:16.363Z,95493.76
2018-12-27T19:49:45.667Z,95489.34
2018-12-27T19:52:15.223Z,95486.98
2018-12-27T19:54:44.604Z,95490.45
2018-12-27T19:57:13.954Z,95480.52
2018-12-27T19:59:43.287Z,95476.84
2018-12-27T20:02:12.655Z,95483.52
2018-12-27T20:04:41.975Z,95481.96
2018-12-27T20:07:11.311Z,95482.33
2018-12-27T20:09:40.715Z,95478.95
2018-12-27T20:12:10.049Z,95483.14
2018-12-27T20:14:39.442Z,95487.63
2018-12-27T20:17:11.571Z,95481.87
2018-12-27T20:19:40.913Z,95485.17
2018-12-27T20:22:10.267Z,95483.89
2018-12-27T20:24:39.585Z,95490.36
2018-12-27T20:27:09.130Z,95481.59
2018-12-27T20:29:38.578Z,95482.61
2018-12-27T20:32:07.909Z,95476.11
2018-12-27T20:34:37.224Z,95484.25
2018-12-27T20:37:09.709Z,95478.02
2018-12-27T20:39:44.367Z,95477.75
2018-12-27T20:42:13.705Z,95475.86
2018-12-27T20:44:43.037Z,95483.33
2018-12-27T20:47:12.403Z,95485.45
2018-12-27T20:49:41.750Z,95482.69
2018-12-27T20:52:14.190Z,95485.52
2018-12-27T20:54:43.508Z,95483.96
2018-12-27T20:57:12.861Z,95462.58
2018-12-27T20:59:42.189Z,95469.52
2018-12-27T21:02:11.587Z,95477.48
2018-12-27T21:04:40.995Z,95469.15
2018-12-27T21:07:10.341Z,95475.65
2018-12-27T21:09:39.680Z,95472.28
2018-12-27T21:12:09.134Z,95479.59
2018-12-27T21:14:38.485Z,95470.73
2018-12-27T21:17:07.865Z,95471.90
2018-12-27T21:19:37.204Z,95472.00
2018-12-27T21:22:06.539Z,95468.63
2018-12-27T21:24:35.882Z,95463.04
2018-12-27T21:27:05.231Z,95457.38
2018-12-27T21:29:34.616Z,95449.06
2018-12-27T21:32:04.175Z,95445.77
2018-12-27T21:34:33.479Z,95436.98
2018-12-27T21:37:02.790Z,95447.05
2018-12-27T21:39:32.152Z,95446.03
2018-12-27T21:42:01.504Z,95445.76
2018-12-27T21:44:30.901Z,95433.06
2018-12-27T21:47:00.243Z,95428.48
2018-12-27T21:49:29.626Z,95420.64
2018-12-27T21:51:58.926Z,95424.47
2018-12-27T21:54:28.305Z,95420.44
2018-12-27T21:56:57.630Z,95423.27
2018-12-27T21:59:26.982Z,95422.66
2018-12-27T22:01:56.336Z,95415.59
2018-12-27T22:04:25.695Z,95414.14
2018-12-27T22:06:55.020Z,95412.52
2018-12-27T22:09:24.321Z,95411.95
2018-12-27T22:11:53.686Z,95412.41
2018-12-27T22:14:23.059Z,95411.95
2018-12-27T22:16:52.375Z,95410.22
2018-12-27T22:19:21.725Z,95407.67
2018-12-27T22:21:51.112Z,95412.41
2018-12-27T22:24:20.465Z,95410.57
2018-12-27T22:26:50.032Z,95405.02
2018-12-27T22:29:19.364Z,95402.08
2018-12-27T22:31:48.833Z,95393.66
2018-12-27T22:34:18.156Z,95402.80
2018-12-27T22:36:47.466Z,95394.38
2018-12-27T22:39:16.796Z,95394.84
2018-12-27T22:41:46.135Z,95391.71
2018-12-27T22:44:15.512Z,95392.08
2018-12-27T22:46:44.856Z,95388.07
2018-12-27T22:49:14.307Z,95384.61
2018-12-27T22:51:43.610Z,95388.91
2018-12-27T22:54:12.977Z,95385.41
2018-12-27T22:56:43.410Z,95390.20
2018-12-27T22:59:12.691Z,95387.80
2018-12-27T23:01:42.094Z,95388.98
2018-12-27T23:04:11.393Z,95387.16
2018-12-27T23:06:40.734Z,95389.83
2018-12-27T23:09:10.067Z,95394.58
2018-12-27T23:11:39.391Z,95390.20
2018-12-27T23:14:08.695Z,95391.27
2018-12-27T23:16:38.049Z,95394.20
2018-12-27T23:19:07.407Z,95392.86
2018-12-27T23:21:36.727Z,95392.75
2018-12-27T23:24:06.091Z,95393.12
2018-12-27T23:26:35.397Z,95389.45
2018-12-27T23:29:04.742Z,95389.82
2018-12-27T23:31:34.083Z,95388.54
2018-12-27T23:34:03.403Z,95383.35
2018-12-27T23:36:32.792Z,95383.63
2018-12-27T23:39:02.087Z,95379.86
2018-12-27T23:41:31.411Z,95383.33
2018-12-27T23:44:00.747Z,95386.09
2018-12-27T23:46:30.037Z,95379.95
2018-12-27T23:48:59.381Z,95387.16
2018-12-27T23:51:28.678Z,95384.27
2018-12-27T23:53:58.026Z,95384.27
2018-12-27T23:56:27.378Z,95380.50
2018-12-27T23:58:56.770Z,95389.02
